createdAt,value
2023-05-17T00:00:09.617Z,0.50
2023-05-17T00:01:09.708Z,0.51
2023-05-17T00:02:09.742Z,0.51
2023-05-17T00:03:10.315Z,0.51
2023-05-17T00:04:09.921Z,0.52
2023-05-17T00:05:09.958Z,0.51
2023-05-17T00:06:10.127Z,0.51
2023-05-17T00:07:10.049Z,0.51
2023-05-17T00:08:10.156Z,0.51
2023-05-17T00:09:10.185Z,0.51
2023-05-17T00:10:10.238Z,0.51
2023-05-17T00:11:10.273Z,0.51
2023-05-17T00:12:10.356Z,0.51
2023-05-17T00:13:10.412Z,0.51
2023-05-17T00:14:10.482Z,0.52
2023-05-17T00:15:10.613Z,0.52
2023-05-17T00:16:10.611Z,0.51
2023-05-17T00:17:10.847Z,0.52
2023-05-17T00:18:10.823Z,0.52
2023-05-17T00:19:10.979Z,0.52
2023-05-17T00:20:10.868Z,0.52
2023-05-17T00:21:10.958Z,0.51
2023-05-17T00:22:10.970Z,0.51
2023-05-17T00:23:11.052Z,0.51
2023-05-17T00:24:11.119Z,0.52
2023-05-17T00:25:11.219Z,0.51
2023-05-17T00:26:11.239Z,0.51
2023-05-17T00:27:11.279Z,0.51
2023-05-17T00:28:11.360Z,0.52
2023-05-17T00:29:11.391Z,0.52
2023-05-17T00:30:11.458Z,0.51
2023-05-17T00:31:11.599Z,0.52
2023-05-17T00:32:11.543Z,0.52
2023-05-17T00:33:11.652Z,0.52
2023-05-17T00:34:11.696Z,0.52
2023-05-17T00:35:11.852Z,0.52
2023-05-17T00:36:11.857Z,0.52
2023-05-17T00:37:11.956Z,0.52
2023-05-17T00:38:11.935Z,0.51
2023-05-17T00:39:12.033Z,0.52
2023-05-17T00:40:12.041Z,0.51
2023-05-17T00:41:12.109Z,0.52
2023-05-17T00:42:12.297Z,0.53
2023-05-17T00:43:12.271Z,0.52
2023-05-17T00:44:12.316Z,0.51
2023-05-17T00:45:12.370Z,0.53
2023-05-17T00:46:12.427Z,0.52
2023-05-17T00:47:12.704Z,0.52
2023-05-17T00:48:12.701Z,0.53
2023-05-17T00:49:12.612Z,0.52
2023-05-17T00:50:12.666Z,0.52
2023-05-17T00:51:12.736Z,0.52
2023-05-17T00:52:12.777Z,0.52
2023-05-17T00:53:12.843Z,0.52
2023-05-17T00:54:12.919Z,0.52
2023-05-17T00:55:12.966Z,0.53
2023-05-17T00:56:13.008Z,0.52
2023-05-17T00:57:13.083Z,0.53
2023-05-17T00:58:13.126Z,0.53
2023-05-17T00:59:13.183Z,0.52
2023-05-17T01:00:13.235Z,0.53
2023-05-17T01:01:13.318Z,0.52
2023-05-17T01:02:13.577Z,0.52
2023-05-17T01:03:13.612Z,0.52
2023-05-17T01:04:13.708Z,0.52
2023-05-17T01:05:13.542Z,0.52
2023-05-17T01:06:13.628Z,0.52
2023-05-17T01:07:13.719Z,0.51
2023-05-17T01:08:13.799Z,0.53
2023-05-17T01:09:13.772Z,0.52
2023-05-17T01:10:13.868Z,0.53
2023-05-17T01:11:14.711Z,0.54
2023-05-17T01:12:13.937Z,0.52
2023-05-17T01:13:14.009Z,0.53
2023-05-17T01:14:14.052Z,0.53
2023-05-17T01:15:14.109Z,0.54
2023-05-17T01:16:14.152Z,0.53
2023-05-17T01:17:14.282Z,0.52
2023-05-17T01:18:14.448Z,0.53
2023-05-17T01:19:14.598Z,0.53
2023-05-17T01:20:14.496Z,0.54
2023-05-17T01:21:14.468Z,0.54
2023-05-17T01:22:14.541Z,0.53
2023-05-17T01:23:14.590Z,0.54
2023-05-17T01:24:14.631Z,0.54
2023-05-17T01:25:14.686Z,0.54
2023-05-17T01:26:14.808Z,0.54
2023-05-17T01:27:14.821Z,0.54
2023-05-17T01:28:14.932Z,0.53
2023-05-17T01:29:14.973Z,0.54
2023-05-17T01:30:15.000Z,0.53
2023-05-17T01:31:15.155Z,0.53
2023-05-17T01:32:15.095Z,0.54
2023-05-17T01:33:15.206Z,0.53
2023-05-17T01:34:15.214Z,0.53
2023-05-17T01:35:15.389Z,0.54
2023-05-17T01:36:15.354Z,0.53
2023-05-17T01:37:15.395Z,0.53
2023-05-17T01:38:15.634Z,0.53
2023-05-17T01:39:15.476Z,0.54
2023-05-17T01:40:15.564Z,0.54
2023-05-17T01:41:15.644Z,0.54
2023-05-17T01:42:16.259Z,0.53
2023-05-17T01:43:15.752Z,0.53
2023-05-17T01:44:15.811Z,0.53
2023-05-17T01:45:15.859Z,0.53
2023-05-17T01:46:15.875Z,0.55
2023-05-17T01:47:16.046Z,0.53
2023-05-17T01:48:16.001Z,0.54
2023-05-17T01:49:15.990Z,0.54
2023-05-17T01:50:16.068Z,0.55
2023-05-17T01:51:16.105Z,0.54
2023-05-17T01:52:16.060Z,0.54
2023-05-17T01:53:16.111Z,0.54
2023-05-17T01:54:16.090Z,0.54
2023-05-17T01:55:16.124Z,0.54
2023-05-17T01:56:16.133Z,0.54
2023-05-17T01:57:16.148Z,0.55
2023-05-17T01:58:16.206Z,0.54
2023-05-17T01:59:16.213Z,0.54
2023-05-17T02:00:16.250Z,0.53
2023-05-17T02:01:16.285Z,0.54
2023-05-17T02:02:16.286Z,0.54
2023-05-17T02:03:16.476Z,0.55
2023-05-17T02:04:16.435Z,0.54
2023-05-17T02:05:16.410Z,0.54
2023-05-17T02:06:16.369Z,0.54
2023-05-17T02:07:16.378Z,0.54
2023-05-17T02:08:16.413Z,0.54
2023-05-17T02:09:16.496Z,0.55
2023-05-17T02:10:16.553Z,0.54
2023-05-17T02:11:16.597Z,0.55
2023-05-17T02:12:16.659Z,0.53
2023-05-17T02:13:16.660Z,0.55
2023-05-17T02:14:16.719Z,0.54
2023-05-17T02:15:16.753Z,0.54
2023-05-17T02:16:16.777Z,0.53
2023-05-17T02:17:16.867Z,0.55
2023-05-17T02:18:16.965Z,0.55
2023-05-17T02:19:17.037Z,0.54
2023-05-17T02:20:16.969Z,0.55
2023-05-17T02:21:17.025Z,0.55
2023-05-17T02:22:17.033Z,0.55
2023-05-17T02:23:17.193Z,0.54
2023-05-17T02:24:17.095Z,0.55
2023-05-17T02:25:17.175Z,0.55
2023-05-17T02:26:17.167Z,0.55
2023-05-17T02:27:17.213Z,0.55
2023-05-17T02:28:17.283Z,0.55
2023-05-17T02:29:17.293Z,0.55
2023-05-17T02:30:18.312Z,0.55
2023-05-17T02:31:17.412Z,0.55
2023-05-17T02:32:17.421Z,0.55
2023-05-17T02:33:17.420Z,0.55
2023-05-17T02:34:17.367Z,0.54
2023-05-17T02:35:17.368Z,0.54
2023-05-17T02:36:17.430Z,0.56
2023-05-17T02:37:17.458Z,0.55
2023-05-17T02:38:17.521Z,0.55
2023-05-17T02:39:17.615Z,0.54
2023-05-17T02:40:17.551Z,0.55
2023-05-17T02:41:17.518Z,0.55
2023-05-17T02:42:17.622Z,0.56
2023-05-17T02:43:17.619Z,0.55
2023-05-17T02:44:17.588Z,0.55
2023-05-17T02:45:17.640Z,0.56
2023-05-17T02:46:17.671Z,0.55
2023-05-17T02:47:17.677Z,0.56
2023-05-17T02:48:17.691Z,0.56
2023-05-17T02:49:17.728Z,0.55
2023-05-17T02:50:17.741Z,0.55
2023-05-17T02:51:17.737Z,0.55
2023-05-17T02:52:17.743Z,0.56
2023-05-17T02:53:17.755Z,0.55
2023-05-17T02:54:17.756Z,0.55
2023-05-17T02:55:17.809Z,0.55
2023-05-17T02:56:17.780Z,0.56
2023-05-17T02:57:17.745Z,0.56
2023-05-17T02:58:17.790Z,0.56
2023-05-17T02:59:17.766Z,0.55
2023-05-17T03:00:17.757Z,0.56
2023-05-17T03:01:17.760Z,0.56
2023-05-17T03:02:17.862Z,0.55
2023-05-17T03:03:17.942Z,0.55
2023-05-17T03:04:17.796Z,0.56
2023-05-17T03:05:17.796Z,0.56
2023-05-17T03:06:17.853Z,0.56
2023-05-17T03:07:17.862Z,0.56
2023-05-17T03:08:17.866Z,0.56
2023-05-17T03:09:17.909Z,0.55
2023-05-17T03:10:17.920Z,0.54
2023-05-17T03:11:18.038Z,0.56
2023-05-17T03:12:17.911Z,0.56
2023-05-17T03:13:17.910Z,0.56
2023-05-17T03:14:17.892Z,0.55
2023-05-17T03:15:17.913Z,0.58
2023-05-17T03:16:17.955Z,0.56
2023-05-17T03:17:17.917Z,0.57
2023-05-17T03:18:18.009Z,0.57
2023-05-17T03:19:18.096Z,0.56
2023-05-17T03:20:17.930Z,0.56
2023-05-17T03:21:17.929Z,0.56
2023-05-17T03:22:17.933Z,0.57
2023-05-17T03:23:18.011Z,0.57
2023-05-17T03:24:18.020Z,0.57
2023-05-17T03:25:17.960Z,0.57
2023-05-17T03:26:17.939Z,0.57
2023-05-17T03:27:18.012Z,0.56
2023-05-17T03:28:17.929Z,0.55
2023-05-17T03:29:17.961Z,0.56
2023-05-17T03:30:17.990Z,0.57
2023-05-17T03:31:17.963Z,0.57
2023-05-17T03:32:17.945Z,0.57
2023-05-17T03:33:17.972Z,0.56
2023-05-17T03:34:17.914Z,0.57
2023-05-17T03:35:17.959Z,0.57
2023-05-17T03:36:17.940Z,0.57
2023-05-17T03:37:17.948Z,0.56
2023-05-17T03:38:17.955Z,0.57
2023-05-17T03:39:17.907Z,0.56
2023-05-17T03:40:17.920Z,0.57
2023-05-17T03:41:17.966Z,0.56
2023-05-17T03:42:17.912Z,0.57
2023-05-17T03:43:18.033Z,0.56
2023-05-17T03:44:17.917Z,0.57
2023-05-17T03:45:17.942Z,0.57
2023-05-17T03:46:17.922Z,0.56
2023-05-17T03:47:17.924Z,0.57
2023-05-17T03:48:17.957Z,0.55
2023-05-17T03:49:18.008Z,0.56
2023-05-17T03:50:17.927Z,0.56
2023-05-17T03:51:17.887Z,0.56
2023-05-17T03:52:17.897Z,0.57
2023-05-17T03:53:17.951Z,0.56
2023-05-17T03:54:17.908Z,0.57
2023-05-17T03:55:17.901Z,0.56
2023-05-17T03:56:17.939Z,0.57
2023-05-17T03:57:17.927Z,0.56
2023-05-17T03:58:17.941Z,0.56
2023-05-17T03:59:17.972Z,0.57
2023-05-17T04:00:17.906Z,0.58
2023-05-17T04:01:17.902Z,0.57
2023-05-17T04:02:17.932Z,0.57
2023-05-17T04:03:20.018Z,0.56
2023-05-17T04:04:18.010Z,0.56
2023-05-17T04:05:17.985Z,0.54
2023-05-17T04:06:17.932Z,0.51
2023-05-17T04:07:17.938Z,0.50
2023-05-17T04:08:17.898Z,0.51
2023-05-17T04:09:17.953Z,0.50
2023-05-17T04:10:17.967Z,0.50
2023-05-17T04:11:17.898Z,0.52
2023-05-17T04:12:17.938Z,0.50
2023-05-17T04:13:17.944Z,0.51
2023-05-17T04:14:17.968Z,0.50
2023-05-17T04:15:18.091Z,0.51
2023-05-17T04:16:17.967Z,0.51
2023-05-17T04:17:17.966Z,0.50
2023-05-17T04:18:18.102Z,0.50
2023-05-17T04:19:18.071Z,0.51
2023-05-17T04:20:18.031Z,0.51
2023-05-17T04:21:18.011Z,0.50
2023-05-17T04:22:18.044Z,0.51
2023-05-17T04:23:18.050Z,0.50
2023-05-17T04:24:18.049Z,0.50
2023-05-17T04:25:18.066Z,0.50
2023-05-17T04:26:18.073Z,0.51
2023-05-17T04:27:18.147Z,0.50
2023-05-17T04:28:18.080Z,0.50
2023-05-17T04:29:18.121Z,0.51
2023-05-17T04:30:18.131Z,0.51
2023-05-17T04:31:18.227Z,0.51
2023-05-17T04:32:18.209Z,0.51
2023-05-17T04:33:18.247Z,0.51
2023-05-17T04:34:18.185Z,0.53
2023-05-17T04:35:18.235Z,0.52
2023-05-17T04:36:18.241Z,0.53
2023-05-17T04:37:18.241Z,0.51
2023-05-17T04:38:18.246Z,0.52
2023-05-17T04:39:18.299Z,0.53
2023-05-17T04:40:18.297Z,0.53
2023-05-17T04:41:18.273Z,0.53
2023-05-17T04:42:18.323Z,0.53
2023-05-17T04:43:18.354Z,0.54
2023-05-17T04:44:18.330Z,0.54
2023-05-17T04:45:18.332Z,0.54
2023-05-17T04:46:18.378Z,0.54
2023-05-17T04:47:18.487Z,0.54
2023-05-17T04:48:18.429Z,0.55
2023-05-17T04:49:18.376Z,0.55
2023-05-17T04:50:18.412Z,0.55
2023-05-17T04:51:18.382Z,0.55
2023-05-17T04:52:18.394Z,0.54
2023-05-17T04:53:18.450Z,0.55
2023-05-17T04:54:18.429Z,0.55
2023-05-17T04:55:18.408Z,0.55
2023-05-17T04:56:18.400Z,0.56
2023-05-17T04:57:18.418Z,0.56
2023-05-17T04:58:19.011Z,0.55
2023-05-17T04:59:18.428Z,0.52
2023-05-17T05:00:18.493Z,0.50
2023-05-17T05:01:18.479Z,0.50
2023-05-17T05:02:18.528Z,0.50
2023-05-17T05:03:18.594Z,0.52
2023-05-17T05:04:18.528Z,0.50
2023-05-17T05:05:18.542Z,0.51
2023-05-17T05:06:18.554Z,0.51
2023-05-17T05:07:18.577Z,0.51
2023-05-17T05:08:18.604Z,0.52
2023-05-17T05:09:18.613Z,0.51
2023-05-17T05:10:18.685Z,0.52
2023-05-17T05:11:18.691Z,0.51
2023-05-17T05:12:18.804Z,0.51
2023-05-17T05:13:18.811Z,0.52
2023-05-17T05:14:18.801Z,0.51
2023-05-17T05:15:18.856Z,0.51
2023-05-17T05:16:18.931Z,0.51
2023-05-17T05:17:19.136Z,0.50
2023-05-17T05:18:19.125Z,0.50
2023-05-17T05:19:19.673Z,0.50
2023-05-17T05:20:19.057Z,0.52
2023-05-17T05:21:19.128Z,0.51
2023-05-17T05:22:19.117Z,0.50
2023-05-17T05:23:19.209Z,0.51
2023-05-17T05:24:19.205Z,0.51
2023-05-17T05:25:19.236Z,0.50
2023-05-17T05:26:19.285Z,0.52
2023-05-17T05:27:19.315Z,0.51
2023-05-17T05:28:19.862Z,0.50
2023-05-17T05:29:19.388Z,0.52
2023-05-17T05:30:19.490Z,0.51
2023-05-17T05:31:19.471Z,0.51
2023-05-17T05:32:19.553Z,0.50
2023-05-17T05:33:19.671Z,0.51
2023-05-17T05:34:19.619Z,0.51
2023-05-17T05:35:19.813Z,0.52
2023-05-17T05:36:19.780Z,0.53
2023-05-17T05:37:19.821Z,0.53
2023-05-17T05:38:19.899Z,0.52
2023-05-17T05:39:19.928Z,0.53
2023-05-17T05:40:19.902Z,0.54
2023-05-17T05:41:19.919Z,0.54
2023-05-17T05:42:20.028Z,0.53
2023-05-17T05:43:20.157Z,0.55
2023-05-17T05:44:20.105Z,0.58
2023-05-17T05:45:19.971Z,0.60
2023-05-17T05:46:20.348Z,0.62
2023-05-17T05:47:20.048Z,0.63
2023-05-17T05:48:20.185Z,0.60
2023-05-17T05:49:20.176Z,0.61
2023-05-17T05:50:20.184Z,0.64
2023-05-17T05:51:22.015Z,0.65
2023-05-17T05:52:20.346Z,0.68
2023-05-17T05:53:20.359Z,0.69
2023-05-17T05:54:20.359Z,0.71
2023-05-17T05:55:20.424Z,0.71
2023-05-17T05:56:20.315Z,0.74
2023-05-17T05:57:20.395Z,0.76
2023-05-17T05:58:20.402Z,0.76
2023-05-17T05:59:20.361Z,0.77
2023-05-17T06:00:20.365Z,0.81
2023-05-17T06:01:20.362Z,0.83
2023-05-17T06:02:21.053Z,0.84
2023-05-17T06:03:21.345Z,0.85
2023-05-17T06:04:24.647Z,0.86
2023-05-17T06:05:21.403Z,0.86
2023-05-17T06:06:20.402Z,0.87
2023-05-17T06:07:20.390Z,0.88
2023-05-17T06:08:20.357Z,0.89
2023-05-17T06:09:20.606Z,0.93
2023-05-17T06:10:20.416Z,0.93
2023-05-17T06:11:20.287Z,0.97
2023-05-17T06:12:20.358Z,0.97
2023-05-17T06:13:20.294Z,0.96
2023-05-17T06:14:20.347Z,0.97
2023-05-17T06:15:20.384Z,0.99
2023-05-17T06:16:20.570Z,0.98
2023-05-17T06:17:20.506Z,0.98
2023-05-17T06:18:20.651Z,1.00
2023-05-17T06:19:20.749Z,1.01
2023-05-17T06:20:20.703Z,1.01
2023-05-17T06:21:20.807Z,1.01
2023-05-17T06:22:20.817Z,1.04
2023-05-17T06:23:20.844Z,1.04
2023-05-17T06:24:20.859Z,1.04
2023-05-17T06:25:20.865Z,1.04
2023-05-17T06:26:20.836Z,1.04
2023-05-17T06:27:20.868Z,1.04
2023-05-17T06:28:20.851Z,1.06
2023-05-17T06:29:20.870Z,1.07
2023-05-17T06:30:20.859Z,1.07
2023-05-17T06:31:21.241Z,1.07
2023-05-17T06:32:20.836Z,1.08
2023-05-17T06:33:20.862Z,1.07
2023-05-17T06:34:20.776Z,1.09
2023-05-17T06:35:20.922Z,1.05
2023-05-17T06:36:20.922Z,1.04
2023-05-17T06:37:21.024Z,1.09
2023-05-17T06:38:21.340Z,1.00
2023-05-17T06:39:21.351Z,0.93
2023-05-17T06:40:21.165Z,0.83
2023-05-17T06:41:21.195Z,0.72
2023-05-17T06:42:21.256Z,0.71
2023-05-17T06:43:22.932Z,0.72
2023-05-17T06:44:21.222Z,0.71
2023-05-17T06:45:21.384Z,0.76
2023-05-17T06:46:21.917Z,0.78
2023-05-17T06:47:21.309Z,0.77
2023-05-17T06:48:21.441Z,0.77
2023-05-17T06:49:21.747Z,0.79
2023-05-17T06:50:21.415Z,0.80
2023-05-17T06:51:21.530Z,0.83
2023-05-17T06:52:21.552Z,0.81
2023-05-17T06:53:21.561Z,0.82
2023-05-17T06:54:21.669Z,0.81
2023-05-17T06:55:21.811Z,0.83
2023-05-17T06:56:21.850Z,0.83
2023-05-17T06:57:22.274Z,0.83
2023-05-17T06:58:21.827Z,0.83
2023-05-17T06:59:21.881Z,0.84
2023-05-17T07:00:21.921Z,0.84
2023-05-17T07:01:22.032Z,0.84
2023-05-17T07:02:22.000Z,0.81
2023-05-17T07:03:22.413Z,0.81
2023-05-17T07:04:22.274Z,0.82
2023-05-17T07:05:22.221Z,0.80
2023-05-17T07:06:22.235Z,0.82
2023-05-17T07:07:22.273Z,0.83
2023-05-17T07:08:22.207Z,0.83
2023-05-17T07:09:22.902Z,0.84
2023-05-17T07:10:22.310Z,0.85
2023-05-17T07:11:22.381Z,0.85
2023-05-17T07:12:22.379Z,0.84
2023-05-17T07:13:22.420Z,0.81
2023-05-17T07:14:22.425Z,0.77
2023-05-17T07:15:22.420Z,0.78
2023-05-17T07:16:22.547Z,0.77
2023-05-17T07:17:22.519Z,0.77
2023-05-17T07:18:23.114Z,0.79
2023-05-17T07:19:22.644Z,0.75
2023-05-17T07:20:22.650Z,0.73
2023-05-17T07:21:22.609Z,0.72
2023-05-17T07:22:22.656Z,0.74
2023-05-17T07:23:22.880Z,0.76
2023-05-17T07:24:22.767Z,0.78
2023-05-17T07:25:22.782Z,0.78
2023-05-17T07:26:22.888Z,0.75
2023-05-17T07:27:23.035Z,0.76
2023-05-17T07:28:23.047Z,0.77
2023-05-17T07:29:22.909Z,0.74
2023-05-17T07:30:22.941Z,0.74
2023-05-17T07:31:23.870Z,0.73
2023-05-17T07:32:22.959Z,0.75
2023-05-17T07:33:23.054Z,0.75
2023-05-17T07:34:23.115Z,0.72
2023-05-17T07:35:23.124Z,0.73
2023-05-17T07:36:23.253Z,0.70
2023-05-17T07:37:23.362Z,0.63
2023-05-17T07:38:23.294Z,0.63
2023-05-17T07:39:23.424Z,0.61
2023-05-17T07:40:23.313Z,0.60
2023-05-17T07:41:24.379Z,0.59
2023-05-17T07:42:23.495Z,0.58
2023-05-17T07:43:23.537Z,0.61
2023-05-17T07:44:23.530Z,0.61
2023-05-17T07:45:23.527Z,0.58
2023-05-17T07:46:23.497Z,0.55
2023-05-17T07:47:23.583Z,0.55
2023-05-17T07:48:23.685Z,0.55
2023-05-17T07:49:23.539Z,0.55
2023-05-17T07:50:23.460Z,0.52
2023-05-17T07:51:23.581Z,0.53
2023-05-17T07:52:23.524Z,0.57
2023-05-17T07:53:23.582Z,0.55
2023-05-17T07:54:23.801Z,0.55
2023-05-17T07:55:23.741Z,0.55
2023-05-17T07:56:23.762Z,0.56
2023-05-17T07:57:23.808Z,0.55
2023-05-17T07:58:23.811Z,0.55
2023-05-17T07:59:23.874Z,0.54
2023-05-17T08:00:24.025Z,0.54
2023-05-17T08:01:23.937Z,0.53
2023-05-17T08:02:24.004Z,0.54
2023-05-17T08:03:24.058Z,0.54
2023-05-17T08:04:24.115Z,0.54
2023-05-17T08:05:24.078Z,0.56
2023-05-17T08:06:24.202Z,0.52
2023-05-17T08:07:24.238Z,0.52
2023-05-17T08:08:24.199Z,0.54
2023-05-17T08:09:24.304Z,0.51
2023-05-17T08:10:24.293Z,0.51
2023-05-17T08:11:24.357Z,0.52
2023-05-17T08:12:24.638Z,0.50
2023-05-17T08:13:24.468Z,0.54
2023-05-17T08:14:24.491Z,0.53
2023-05-17T08:15:24.516Z,0.50
2023-05-17T08:16:24.547Z,0.51
2023-05-17T08:17:24.652Z,0.54
2023-05-17T08:18:24.830Z,0.55
2023-05-17T08:19:24.895Z,0.54
2023-05-17T08:20:24.903Z,0.56
2023-05-17T08:21:24.826Z,0.56
2023-05-17T08:22:24.900Z,0.58
2023-05-17T08:23:24.946Z,0.58
2023-05-17T08:24:24.959Z,0.58
2023-05-17T08:25:25.013Z,0.59
2023-05-17T08:26:25.234Z,0.60
2023-05-17T08:27:25.135Z,0.59
2023-05-17T08:28:25.462Z,0.49
2023-05-17T08:29:25.161Z,0.42
2023-05-17T08:30:28.840Z,0.40
2023-05-17T08:31:25.222Z,0.36
2023-05-17T08:32:25.225Z,0.34
2023-05-17T08:33:25.272Z,0.34
2023-05-17T08:34:25.185Z,0.34
2023-05-17T08:35:27.722Z,0.34
2023-05-17T08:36:25.197Z,0.34
2023-05-17T08:37:25.153Z,0.34
2023-05-17T08:38:25.221Z,0.34
2023-05-17T08:39:25.119Z,0.34
2023-05-17T08:40:25.303Z,0.34
2023-05-17T08:41:25.181Z,0.34
2023-05-17T08:42:25.155Z,0.36
2023-05-17T08:43:26.817Z,0.49
2023-05-17T08:44:25.104Z,0.49
2023-05-17T08:45:25.096Z,0.50
2023-05-17T08:46:25.640Z,0.53
2023-05-17T08:47:25.408Z,0.60
2023-05-17T08:48:25.106Z,0.73
2023-05-17T08:49:25.188Z,0.79
2023-05-17T08:50:25.099Z,0.81
2023-05-17T08:51:25.103Z,0.86
2023-05-17T08:52:25.038Z,0.86
2023-05-17T08:53:25.063Z,0.90
2023-05-17T08:54:25.010Z,0.96
2023-05-17T08:55:25.029Z,0.96
2023-05-17T08:56:25.028Z,0.97
2023-05-17T08:57:25.004Z,0.97
2023-05-17T08:58:25.031Z,0.99
2023-05-17T08:59:25.089Z,1.01
2023-05-17T09:00:25.006Z,1.06
2023-05-17T09:01:26.417Z,1.07
2023-05-17T09:02:25.031Z,1.10
2023-05-17T09:03:25.036Z,1.17
2023-05-17T09:04:25.028Z,1.20
2023-05-17T09:05:24.960Z,1.20
2023-05-17T09:06:25.009Z,1.16
2023-05-17T09:07:24.947Z,1.21
2023-05-17T09:08:25.016Z,1.23
2023-05-17T09:09:25.015Z,1.26
2023-05-17T09:10:25.119Z,1.32
2023-05-17T09:11:25.125Z,1.30
2023-05-17T09:12:25.820Z,1.32
2023-05-17T09:13:25.199Z,1.34
2023-05-17T09:14:25.352Z,1.42
2023-05-17T09:15:25.298Z,1.42
2023-05-17T09:16:25.368Z,1.42
2023-05-17T09:17:25.407Z,1.48
2023-05-17T09:18:25.448Z,1.54
2023-05-17T09:19:25.664Z,1.49
2023-05-17T09:20:25.561Z,1.50
2023-05-17T09:21:25.509Z,1.55
2023-05-17T09:22:25.596Z,1.58
2023-05-17T09:23:25.631Z,1.60
2023-05-17T09:24:25.616Z,1.67
2023-05-17T09:25:25.637Z,1.69
2023-05-17T09:26:25.639Z,1.76
2023-05-17T09:27:25.674Z,1.84
2023-05-17T09:28:25.685Z,1.89
2023-05-17T09:29:25.767Z,1.87
2023-05-17T09:30:25.937Z,1.87
2023-05-17T09:31:25.832Z,1.92
2023-05-17T09:32:25.972Z,1.91
2023-05-17T09:33:25.834Z,1.96
2023-05-17T09:34:25.834Z,1.99
2023-05-17T09:35:26.030Z,2.07
2023-05-17T09:36:25.923Z,2.09
2023-05-17T09:37:25.935Z,2.16
2023-05-17T09:38:26.003Z,2.16
2023-05-17T09:39:25.936Z,2.27
2023-05-17T09:40:26.105Z,2.32
2023-05-17T09:41:26.069Z,2.27
2023-05-17T09:42:26.065Z,2.17
2023-05-17T09:43:26.000Z,2.19
2023-05-17T09:44:26.019Z,2.32
2023-05-17T09:45:26.111Z,2.44
2023-05-17T09:46:26.023Z,2.52
2023-05-17T09:47:26.316Z,2.50
2023-05-17T09:48:26.193Z,2.55
2023-05-17T09:49:26.101Z,2.54
2023-05-17T09:50:26.433Z,2.55
2023-05-17T09:51:26.147Z,2.63
2023-05-17T09:52:26.129Z,2.64
2023-05-17T09:53:26.123Z,2.70
2023-05-17T09:54:26.191Z,2.59
2023-05-17T09:55:26.275Z,2.58
2023-05-17T09:56:26.173Z,2.60
2023-05-17T09:57:26.288Z,2.61
2023-05-17T09:58:26.612Z,2.69
2023-05-17T09:59:26.213Z,2.67
2023-05-17T10:00:28.050Z,2.73
2023-05-17T10:01:26.194Z,2.75
2023-05-17T10:02:26.144Z,2.71
2023-05-17T10:03:26.215Z,2.73
2023-05-17T10:04:26.201Z,2.85
2023-05-17T10:05:26.699Z,2.79
2023-05-17T10:06:39.229Z,2.81
2023-05-17T10:07:27.311Z,2.82
2023-05-17T10:08:26.252Z,2.83
2023-05-17T10:09:26.168Z,2.85
2023-05-17T10:10:26.193Z,2.89
2023-05-17T10:11:26.201Z,2.96
2023-05-17T10:12:26.162Z,3.02
2023-05-17T10:13:26.163Z,3.06
2023-05-17T10:14:26.227Z,2.95
2023-05-17T10:15:26.720Z,2.97
2023-05-17T10:16:26.222Z,2.83
2023-05-17T10:17:26.167Z,2.88
2023-05-17T10:18:26.182Z,3.09
2023-05-17T10:19:26.320Z,3.12
2023-05-17T10:20:26.166Z,3.04
2023-05-17T10:21:26.251Z,3.05
2023-05-17T10:22:26.062Z,3.17
2023-05-17T10:23:26.159Z,3.12
2023-05-17T10:24:26.073Z,3.17
2023-05-17T10:25:26.170Z,3.18
2023-05-17T10:26:26.074Z,3.30
2023-05-17T10:27:26.114Z,3.72
2023-05-17T10:28:26.114Z,2.43
2023-05-17T10:29:26.104Z,1.74
2023-05-17T10:30:26.218Z,1.43
2023-05-17T10:31:26.207Z,1.57
2023-05-17T10:32:26.259Z,1.43
2023-05-17T10:33:26.578Z,1.26
2023-05-17T10:34:26.370Z,1.22
2023-05-17T10:35:26.427Z,1.18
2023-05-17T10:36:26.531Z,0.97
2023-05-17T10:37:26.543Z,0.92
2023-05-17T10:38:38.732Z,0.78
2023-05-17T10:39:27.535Z,0.73
2023-05-17T10:40:26.500Z,0.69
2023-05-17T10:41:26.521Z,0.66
2023-05-17T10:42:26.503Z,0.54
2023-05-17T10:43:26.479Z,0.62
2023-05-17T10:44:26.484Z,0.63
2023-05-17T10:45:26.490Z,0.66
2023-05-17T10:46:26.505Z,0.69
2023-05-17T10:47:26.450Z,0.72
2023-05-17T10:48:26.612Z,0.73
2023-05-17T10:49:26.582Z,0.72
2023-05-17T10:50:26.527Z,0.77
2023-05-17T10:51:26.421Z,0.72
2023-05-17T10:52:26.421Z,0.75
2023-05-17T10:53:26.475Z,0.77
2023-05-17T10:54:26.402Z,0.75
2023-05-17T10:55:26.474Z,0.73
2023-05-17T10:56:26.409Z,0.79
2023-05-17T10:57:27.662Z,0.80
2023-05-17T10:58:26.378Z,0.84
2023-05-17T10:59:26.335Z,0.84
2023-05-17T11:00:26.440Z,0.87
2023-05-17T11:01:26.339Z,0.93
2023-05-17T11:02:26.341Z,0.96
2023-05-17T11:03:26.353Z,0.97
2023-05-17T11:04:26.655Z,1.01
2023-05-17T11:05:26.387Z,1.05
2023-05-17T11:06:26.437Z,1.07
2023-05-17T11:07:26.339Z,0.96
2023-05-17T11:08:26.354Z,0.99
2023-05-17T11:09:26.296Z,0.99
2023-05-17T11:10:26.387Z,0.99
2023-05-17T11:11:26.277Z,1.01
2023-05-17T11:12:26.257Z,1.05
2023-05-17T11:13:26.272Z,1.07
2023-05-17T11:14:26.377Z,1.14
2023-05-17T11:15:26.324Z,1.24
2023-05-17T11:16:26.491Z,1.17
2023-05-17T11:17:26.298Z,1.07
2023-05-17T11:18:31.099Z,1.07
2023-05-17T11:19:27.321Z,1.07
2023-05-17T11:20:26.492Z,1.09
2023-05-17T11:21:26.302Z,1.13
2023-05-17T11:22:26.252Z,1.15
2023-05-17T11:23:26.241Z,1.15
2023-05-17T11:24:26.239Z,1.16
2023-05-17T11:25:26.297Z,1.09
2023-05-17T11:26:26.260Z,1.12
2023-05-17T11:27:26.261Z,1.03
2023-05-17T11:28:26.209Z,1.02
2023-05-17T11:29:26.189Z,1.04
2023-05-17T11:30:26.368Z,1.03
2023-05-17T11:31:26.234Z,0.96
2023-05-17T11:32:26.334Z,1.03
2023-05-17T11:33:33.694Z,0.97
2023-05-17T11:34:27.445Z,0.97
2023-05-17T11:35:26.323Z,0.94
2023-05-17T11:36:26.466Z,0.93
2023-05-17T11:37:26.340Z,0.95
2023-05-17T11:38:26.280Z,0.92
2023-05-17T11:39:26.282Z,0.90
2023-05-17T11:40:26.341Z,0.89
2023-05-17T11:41:27.221Z,0.91
2023-05-17T11:42:26.273Z,0.86
2023-05-17T11:43:26.375Z,0.86
2023-05-17T11:44:26.371Z,0.85
2023-05-17T11:45:26.435Z,0.84
2023-05-17T11:46:26.496Z,0.83
2023-05-17T11:47:26.391Z,0.81
2023-05-17T11:48:26.546Z,0.81
2023-05-17T11:49:34.827Z,0.81
2023-05-17T11:50:27.465Z,0.81
2023-05-17T11:51:26.373Z,0.82
2023-05-17T11:52:27.411Z,0.81
2023-05-17T11:53:26.444Z,0.80
2023-05-17T11:54:26.329Z,0.80
2023-05-17T11:55:26.435Z,0.82
2023-05-17T11:56:39.465Z,0.78
2023-05-17T11:57:27.399Z,0.79
2023-05-17T11:58:26.305Z,0.79
2023-05-17T11:59:26.313Z,0.80
2023-05-17T12:00:26.516Z,0.82
2023-05-17T12:01:26.299Z,0.85
2023-05-17T12:02:26.360Z,0.86
2023-05-17T12:03:26.257Z,0.89
2023-05-17T12:04:26.373Z,0.91
2023-05-17T12:05:26.273Z,0.94
2023-05-17T12:06:26.269Z,0.94
2023-05-17T12:07:26.283Z,0.90
2023-05-17T12:08:26.335Z,0.93
2023-05-17T12:09:26.341Z,0.93
2023-05-17T12:10:26.396Z,0.89
2023-05-17T12:11:26.394Z,0.93
2023-05-17T12:12:26.419Z,0.94
2023-05-17T12:13:26.470Z,0.95
2023-05-17T12:14:26.478Z,0.99
2023-05-17T12:15:26.544Z,0.98
2023-05-17T12:16:26.558Z,1.01
2023-05-17T12:17:27.570Z,1.00
2023-05-17T12:18:26.671Z,1.00
2023-05-17T12:19:26.745Z,1.01
2023-05-17T12:20:26.762Z,1.02
2023-05-17T12:21:26.738Z,1.02
2023-05-17T12:22:26.728Z,1.02
2023-05-17T12:23:26.800Z,1.05
2023-05-17T12:24:26.822Z,1.08
2023-05-17T12:25:26.860Z,1.08
2023-05-17T12:26:26.882Z,1.06
2023-05-17T12:27:26.923Z,1.07
2023-05-17T12:28:26.922Z,1.09
2023-05-17T12:29:26.936Z,1.11
2023-05-17T12:30:27.088Z,1.14
2023-05-17T12:31:27.089Z,1.13
2023-05-17T12:32:27.071Z,1.12
2023-05-17T12:33:27.194Z,1.15
2023-05-17T12:34:27.182Z,1.12
2023-05-17T12:35:27.168Z,1.15
2023-05-17T12:36:27.178Z,1.18
2023-05-17T12:37:27.245Z,1.18
2023-05-17T12:38:27.291Z,1.16
2023-05-17T12:39:27.262Z,1.14
2023-05-17T12:40:27.417Z,1.15
2023-05-17T12:41:27.319Z,1.17
2023-05-17T12:42:27.480Z,1.18
2023-05-17T12:43:27.388Z,1.20
2023-05-17T12:44:27.452Z,1.20
2023-05-17T12:45:27.429Z,1.21
2023-05-17T12:46:27.500Z,1.24
2023-05-17T12:47:27.566Z,1.24
2023-05-17T12:48:27.603Z,1.24
2023-05-17T12:49:27.568Z,1.23
2023-05-17T12:50:27.759Z,1.26
2023-05-17T12:51:27.660Z,1.25
2023-05-17T12:52:27.662Z,1.26
2023-05-17T12:53:27.718Z,1.29
2023-05-17T12:54:27.716Z,1.29
2023-05-17T12:55:27.738Z,1.30
2023-05-17T12:56:27.787Z,1.29
2023-05-17T12:57:27.812Z,1.30
2023-05-17T12:58:27.833Z,1.32
2023-05-17T12:59:27.898Z,1.35
2023-05-17T13:00:28.240Z,1.35
2023-05-17T13:01:27.919Z,1.38
2023-05-17T13:02:28.032Z,1.38
2023-05-17T13:03:28.152Z,1.38
2023-05-17T13:04:28.081Z,1.36
2023-05-17T13:05:28.058Z,1.30
2023-05-17T13:06:28.084Z,1.31
2023-05-17T13:07:28.181Z,1.31
2023-05-17T13:08:28.183Z,1.30
2023-05-17T13:09:28.298Z,1.28
2023-05-17T13:10:28.817Z,1.30
2023-05-17T13:11:28.328Z,1.31
2023-05-17T13:12:28.329Z,1.20
2023-05-17T13:13:28.422Z,1.07
2023-05-17T13:14:28.417Z,0.99
2023-05-17T13:15:28.545Z,0.94
2023-05-17T13:16:28.621Z,0.97
2023-05-17T13:17:28.702Z,0.98
2023-05-17T13:18:28.768Z,1.04